sensor_id;sensor_type;location;lat;lon;timestamp;P1;durP1;ratioP1;P2;durP2;ratioP2
39218;SDS011;24934;52.752;6.964;2022-11-02T00:00:19;16.10;;;5.53;;
39218;SDS011;24934;52.752;6.964;2022-11-02T00:02:45;14.33;;;4.53;;
39218;SDS011;24934;52.752;6.964;2022-11-02T00:05:11;11.03;;;4.90;;
39218;SDS011;24934;52.752;6.964;2022-11-02T00:07:38;10.43;;;5.50;;
39218;SDS011;24934;52.752;6.964;2022-11-02T00:10:05;13.73;;;5.63;;
39218;SDS011;24934;52.752;6.964;2022-11-02T00:12:42;15.75;;;5.85;;
39218;SDS011;24934;52.752;6.964;2022-11-02T00:15:07;14.30;;;5.47;;
39218;SDS011;24934;52.752;6.964;2022-11-02T00:17:33;11.98;;;5.95;;
39218;SDS011;24934;52.752;6.964;2022-11-02T00:20:00;16.83;;;6.30;;
39218;SDS011;24934;52.752;6.964;2022-11-02T00:22:29;12.10;;;5.38;;
39218;SDS011;24934;52.752;6.964;2022-11-02T00:24:55;15.77;;;6.07;;
39218;SDS011;24934;52.752;6.964;2022-11-02T00:27:22;15.68;;;6.47;;
39218;SDS011;24934;52.752;6.964;2022-11-02T00:29:48;13.68;;;5.85;;
39218;SDS011;24934;52.752;6.964;2022-11-02T00:32:13;15.87;;;5.90;;
39218;SDS011;24934;52.752;6.964;2022-11-02T00:34:39;14.65;;;6.13;;
39218;SDS011;24934;52.752;6.964;2022-11-02T00:37:05;12.88;;;5.80;;
39218;SDS011;24934;52.752;6.964;2022-11-02T00:39:30;18.80;;;6.95;;
39218;SDS011;24934;52.752;6.964;2022-11-02T00:41:56;18.80;;;6.30;;
39218;SDS011;24934;52.752;6.964;2022-11-02T00:44:21;20.40;;;6.38;;
39218;SDS011;24934;52.752;6.964;2022-11-02T00:46:47;18.90;;;6.10;;
39218;SDS011;24934;52.752;6.964;2022-11-02T00:49:13;14.32;;;5.68;;
39218;SDS011;24934;52.752;6.964;2022-11-02T00:51:38;22.10;;;6.00;;
39218;SDS011;24934;52.752;6.964;2022-11-02T00:54:04;15.83;;;5.70;;
39218;SDS011;24934;52.752;6.964;2022-11-02T00:56:30;15.48;;;5.82;;
39218;SDS011;24934;52.752;6.964;2022-11-02T00:58:55;14.27;;;5.67;;
39218;SDS011;24934;52.752;6.964;2022-11-02T01:01:21;16.25;;;6.43;;
39218;SDS011;24934;52.752;6.964;2022-11-02T01:03:49;17.95;;;6.93;;
39218;SDS011;24934;52.752;6.964;2022-11-02T01:06:15;16.13;;;5.95;;
39218;SDS011;24934;52.752;6.964;2022-11-02T01:08:41;14.13;;;6.45;;
39218;SDS011;24934;52.752;6.964;2022-11-02T01:11:19;16.63;;;6.20;;
39218;SDS011;24934;52.752;6.964;2022-11-02T01:13:48;13.50;;;6.47;;
39218;SDS011;24934;52.752;6.964;2022-11-02T01:16:18;15.05;;;6.43;;
39218;SDS011;24934;52.752;6.964;2022-11-02T01:18:44;12.23;;;6.15;;
39218;SDS011;24934;52.752;6.964;2022-11-02T01:21:09;13.93;;;6.18;;
39218;SDS011;24934;52.752;6.964;2022-11-02T01:23:36;10.18;;;5.97;;
39218;SDS011;24934;52.752;6.964;2022-11-02T01:26:06;15.80;;;5.77;;
39218;SDS011;24934;52.752;6.964;2022-11-02T01:28:33;14.40;;;6.28;;
39218;SDS011;24934;52.752;6.964;2022-11-02T01:30:59;13.60;;;5.88;;
39218;SDS011;24934;52.752;6.964;2022-11-02T01:33:25;13.47;;;5.20;;
39218;SDS011;24934;52.752;6.964;2022-11-02T01:35:51;15.83;;;6.37;;
39218;SDS011;24934;52.752;6.964;2022-11-02T01:38:17;15.77;;;6.22;;
39218;SDS011;24934;52.752;6.964;2022-11-02T01:40:43;14.17;;;5.67;;
39218;SDS011;24934;52.752;6.964;2022-11-02T01:46:34;12.10;;;5.77;;
39218;SDS011;24934;52.752;6.964;2022-11-02T01:48:52;17.42;;;6.13;;
39218;SDS011;24934;52.752;6.964;2022-11-02T01:51:26;13.57;;;5.57;;
39218;SDS011;24934;52.752;6.964;2022-11-02T01:54:22;14.57;;;6.43;;
39218;SDS011;24934;52.752;6.964;2022-11-02T01:57:02;20.75;;;7.22;;
39218;SDS011;24934;52.752;6.964;2022-11-02T01:59:31;12.73;;;5.50;;
39218;SDS011;24934;52.752;6.964;2022-11-02T02:02:01;16.90;;;6.18;;
39218;SDS011;24934;52.752;6.964;2022-11-02T02:04:31;11.10;;;4.87;;
39218;SDS011;24934;52.752;6.964;2022-11-02T02:06:57;12.03;;;5.07;;
39218;SDS011;24934;52.752;6.964;2022-11-02T02:09:24;15.27;;;5.80;;
39218;SDS011;24934;52.752;6.964;2022-11-02T02:11:50;9.93;;;5.07;;
39218;SDS011;24934;52.752;6.964;2022-11-02T02:14:16;14.65;;;5.30;;
39218;SDS011;24934;52.752;6.964;2022-11-02T02:25:25;12.67;;;5.67;;
39218;SDS011;24934;52.752;6.964;2022-11-02T02:36:49;15.37;;;5.60;;
39218;SDS011;24934;52.752;6.964;2022-11-02T02:39:27;19.83;;;6.47;;
39218;SDS011;24934;52.752;6.964;2022-11-02T02:42:17;13.10;;;5.80;;
39218;SDS011;24934;52.752;6.964;2022-11-02T02:47:33;19.37;;;6.03;;
39218;SDS011;24934;52.752;6.964;2022-11-02T02:50:04;14.50;;;5.47;;
39218;SDS011;24934;52.752;6.964;2022-11-02T02:52:37;16.00;;;5.97;;
39218;SDS011;24934;52.752;6.964;2022-11-02T02:55:06;10.97;;;4.83;;
39218;SDS011;24934;52.752;6.964;2022-11-02T02:57:34;12.00;;;5.17;;
39218;SDS011;24934;52.752;6.964;2022-11-02T03:00:01;6.53;;;4.60;;
39218;SDS011;24934;52.752;6.964;2022-11-02T03:02:30;13.37;;;5.63;;
39218;SDS011;24934;52.752;6.964;2022-11-02T03:04:58;10.63;;;6.03;;
39218;SDS011;24934;52.752;6.964;2022-11-02T03:07:31;9.70;;;5.87;;
39218;SDS011;24934;52.752;6.964;2022-11-02T03:12:44;9.53;;;5.30;;
39218;SDS011;24934;52.752;6.964;2022-11-02T03:15:37;7.90;;;5.50;;
39218;SDS011;24934;52.752;6.964;2022-11-02T03:18:16;11.57;;;5.83;;
39218;SDS011;24934;52.752;6.964;2022-11-02T03:21:05;9.40;;;5.90;;
39218;SDS011;24934;52.752;6.964;2022-11-02T03:23:53;8.40;;;5.30;;
39218;SDS011;24934;52.752;6.964;2022-11-02T03:26:28;11.43;;;6.10;;
39218;SDS011;24934;52.752;6.964;2022-11-02T03:31:41;8.53;;;5.93;;
39218;SDS011;24934;52.752;6.964;2022-11-02T03:39:47;7.00;;;5.13;;
39218;SDS011;24934;52.752;6.964;2022-11-02T03:42:35;6.80;;;5.30;;
39218;SDS011;24934;52.752;6.964;2022-11-02T03:45:08;9.67;;;5.60;;
39218;SDS011;24934;52.752;6.964;2022-11-02T03:47:40;9.30;;;5.80;;
39218;SDS011;24934;52.752;6.964;2022-11-02T03:50:10;7.50;;;5.67;;
39218;SDS011;24934;52.752;6.964;2022-11-02T03:52:38;10.20;;;6.13;;
39218;SDS011;24934;52.752;6.964;2022-11-02T03:57:47;6.27;;;5.67;;
39218;SDS011;24934;52.752;6.964;2022-11-02T04:00:15;8.67;;;5.20;;
39218;SDS011;24934;52.752;6.964;2022-11-02T04:02:46;8.13;;;4.47;;
39218;SDS011;24934;52.752;6.964;2022-11-02T04:05:14;7.37;;;4.57;;
39218;SDS011;24934;52.752;6.964;2022-11-02T04:07:41;6.83;;;4.97;;
39218;SDS011;24934;52.752;6.964;2022-11-02T04:10:28;8.33;;;5.60;;
39218;SDS011;24934;52.752;6.964;2022-11-02T04:12:54;10.67;;;5.40;;
39218;SDS011;24934;52.752;6.964;2022-11-02T04:15:38;9.07;;;5.20;;
39218;SDS011;24934;52.752;6.964;2022-11-02T04:18:04;6.63;;;4.70;;
39218;SDS011;24934;52.752;6.964;2022-11-02T04:20:49;9.60;;;4.70;;
39218;SDS011;24934;52.752;6.964;2022-11-02T04:23:15;12.13;;;5.23;;
39218;SDS011;24934;52.752;6.964;2022-11-02T04:25:59;8.30;;;4.50;;
39218;SDS011;24934;52.752;6.964;2022-11-02T04:28:28;7.17;;;4.60;;
39218;SDS011;24934;52.752;6.964;2022-11-02T04:30:57;8.80;;;4.33;;
39218;SDS011;24934;52.752;6.964;2022-11-02T04:33:25;7.43;;;4.80;;
39218;SDS011;24934;52.752;6.964;2022-11-02T04:36:01;7.77;;;4.67;;
39218;SDS011;24934;52.752;6.964;2022-11-02T04:38:29;10.20;;;4.30;;
39218;SDS011;24934;52.752;6.964;2022-11-02T04:43:53;7.03;;;5.10;;
39218;SDS011;24934;52.752;6.964;2022-11-02T04:46:20;7.33;;;4.73;;
39218;SDS011;24934;52.752;6.964;2022-11-02T04:48:47;8.90;;;4.67;;
39218;SDS011;24934;52.752;6.964;2022-11-02T04:51:13;9.63;;;5.07;;
39218;SDS011;24934;52.752;6.964;2022-11-02T04:53:38;8.87;;;5.03;;
39218;SDS011;24934;52.752;6.964;2022-11-02T04:56:04;9.47;;;4.40;;
39218;SDS011;24934;52.752;6.964;2022-11-02T04:58:30;9.23;;;4.70;;
39218;SDS011;24934;52.752;6.964;2022-11-02T05:00:56;7.83;;;3.80;;
39218;SDS011;24934;52.752;6.964;2022-11-02T05:03:21;8.37;;;4.27;;
39218;SDS011;24934;52.752;6.964;2022-11-02T05:05:47;11.60;;;4.77;;
39218;SDS011;24934;52.752;6.964;2022-11-02T05:08:20;7.60;;;4.80;;
39218;SDS011;24934;52.752;6.964;2022-11-02T05:10:47;9.50;;;4.57;;
39218;SDS011;24934;52.752;6.964;2022-11-02T05:13:13;11.37;;;5.23;;
39218;SDS011;24934;52.752;6.964;2022-11-02T05:15:38;12.90;;;5.20;;
39218;SDS011;24934;52.752;6.964;2022-11-02T05:18:04;11.37;;;4.87;;
39218;SDS011;24934;52.752;6.964;2022-11-02T05:20:33;11.37;;;4.70;;
39218;SDS011;24934;52.752;6.964;2022-11-02T05:23:00;14.43;;;5.10;;
39218;SDS011;24934;52.752;6.964;2022-11-02T05:25:25;14.80;;;5.43;;
39218;SDS011;24934;52.752;6.964;2022-11-02T05:27:51;10.73;;;4.73;;
39218;SDS011;24934;52.752;6.964;2022-11-02T05:30:16;8.13;;;4.50;;
39218;SDS011;24934;52.752;6.964;2022-11-02T05:32:42;13.90;;;5.03;;
39218;SDS011;24934;52.752;6.964;2022-11-02T05:35:08;11.57;;;4.60;;
39218;SDS011;24934;52.752;6.964;2022-11-02T05:37:33;10.70;;;4.73;;
39218;SDS011;24934;52.752;6.964;2022-11-02T05:39:59;14.10;;;5.03;;
39218;SDS011;24934;52.752;6.964;2022-11-02T05:42:24;15.27;;;5.77;;
39218;SDS011;24934;52.752;6.964;2022-11-02T05:44:50;12.40;;;4.80;;
39218;SDS011;24934;52.752;6.964;2022-11-02T05:47:16;17.40;;;6.20;;
39218;SDS011;24934;52.752;6.964;2022-11-02T05:49:42;13.23;;;7.57;;
39218;SDS011;24934;52.752;6.964;2022-11-02T05:52:07;16.23;;;9.90;;
39218;SDS011;24934;52.752;6.964;2022-11-02T05:54:33;19.07;;;9.83;;
39218;SDS011;24934;52.752;6.964;2022-11-02T05:56:58;19.07;;;11.10;;
39218;SDS011;24934;52.752;6.964;2022-11-02T05:59:24;20.60;;;12.73;;
39218;SDS011;24934;52.752;6.964;2022-11-02T06:01:52;14.83;;;12.63;;
39218;SDS011;24934;52.752;6.964;2022-11-02T06:04:18;20.80;;;14.13;;
39218;SDS011;24934;52.752;6.964;2022-11-02T06:06:45;20.30;;;13.80;;
39218;SDS011;24934;52.752;6.964;2022-11-02T06:09:10;22.77;;;13.43;;
39218;SDS011;24934;52.752;6.964;2022-11-02T06:11:36;22.40;;;14.37;;
39218;SDS011;24934;52.752;6.964;2022-11-02T06:14:02;22.00;;;14.87;;
39218;SDS011;24934;52.752;6.964;2022-11-02T06:16:27;25.47;;;13.93;;
39218;SDS011;24934;52.752;6.964;2022-11-02T06:18:58;19.83;;;13.77;;
39218;SDS011;24934;52.752;6.964;2022-11-02T06:21:27;20.80;;;13.83;;
39218;SDS011;24934;52.752;6.964;2022-11-02T06:23:53;21.47;;;13.87;;
39218;SDS011;24934;52.752;6.964;2022-11-02T06:26:18;22.13;;;14.87;;
39218;SDS011;24934;52.752;6.964;2022-11-02T06:28:44;17.60;;;14.10;;
39218;SDS011;24934;52.752;6.964;2022-11-02T06:31:09;23.10;;;14.53;;
39218;SDS011;24934;52.752;6.964;2022-11-02T06:33:35;20.87;;;15.00;;
39218;SDS011;24934;52.752;6.964;2022-11-02T06:36:01;22.53;;;15.20;;
39218;SDS011;24934;52.752;6.964;2022-11-02T06:38:26;22.60;;;15.50;;
39218;SDS011;24934;52.752;6.964;2022-11-02T06:40:55;20.07;;;16.23;;
39218;SDS011;24934;52.752;6.964;2022-11-02T06:43:22;24.37;;;16.93;;
39218;SDS011;24934;52.752;6.964;2022-11-02T06:45:48;24.93;;;17.80;;
39218;SDS011;24934;52.752;6.964;2022-11-02T06:48:14;28.10;;;18.67;;
39218;SDS011;24934;52.752;6.964;2022-11-02T06:50:40;27.97;;;18.87;;
39218;SDS011;24934;52.752;6.964;2022-11-02T06:53:05;24.17;;;17.67;;
39218;SDS011;24934;52.752;6.964;2022-11-02T06:55:31;20.83;;;17.10;;
39218;SDS011;24934;52.752;6.964;2022-11-02T06:57:57;27.23;;;18.10;;
39218;SDS011;24934;52.752;6.964;2022-11-02T07:00:22;26.73;;;17.20;;
39218;SDS011;24934;52.752;6.964;2022-11-02T07:03:01;27.13;;;16.97;;
39218;SDS011;24934;52.752;6.964;2022-11-02T07:05:29;24.10;;;17.83;;
39218;SDS011;24934;52.752;6.964;2022-11-02T07:07:58;25.07;;;18.30;;
39218;SDS011;24934;52.752;6.964;2022-11-02T07:10:24;23.23;;;17.13;;
39218;SDS011;24934;52.752;6.964;2022-11-02T07:12:51;23.40;;;17.27;;
39218;SDS011;24934;52.752;6.964;2022-11-02T07:15:18;29.03;;;16.40;;
39218;SDS011;24934;52.752;6.964;2022-11-02T07:17:48;22.53;;;16.60;;
39218;SDS011;24934;52.752;6.964;2022-11-02T07:20:14;28.20;;;17.17;;
39218;SDS011;24934;52.752;6.964;2022-11-02T07:22:40;25.07;;;16.90;;
39218;SDS011;24934;52.752;6.964;2022-11-02T07:25:06;24.77;;;16.80;;
39218;SDS011;24934;52.752;6.964;2022-11-02T07:27:38;28.03;;;16.87;;
39218;SDS011;24934;52.752;6.964;2022-11-02T07:30:05;21.07;;;15.63;;
39218;SDS011;24934;52.752;6.964;2022-11-02T07:32:38;17.37;;;15.47;;
39218;SDS011;24934;52.752;6.964;2022-11-02T07:35:07;22.13;;;14.60;;
39218;SDS011;24934;52.752;6.964;2022-11-02T07:37:35;20.50;;;14.27;;
39218;SDS011;24934;52.752;6.964;2022-11-02T07:40:00;16.57;;;13.10;;
39218;SDS011;24934;52.752;6.964;2022-11-02T07:42:26;24.23;;;14.10;;
39218;SDS011;24934;52.752;6.964;2022-11-02T07:44:55;21.80;;;13.50;;
39218;SDS011;24934;52.752;6.964;2022-11-02T07:47:20;15.40;;;13.63;;
39218;SDS011;24934;52.752;6.964;2022-11-02T07:49:49;19.63;;;13.07;;
39218;SDS011;24934;52.752;6.964;2022-11-02T07:52:17;17.80;;;12.60;;
39218;SDS011;24934;52.752;6.964;2022-11-02T07:54:43;19.47;;;13.40;;
39218;SDS011;24934;52.752;6.964;2022-11-02T07:57:11;19.55;;;13.27;;
39218;SDS011;24934;52.752;6.964;2022-11-02T07:59:37;19.90;;;13.50;;
39218;SDS011;24934;52.752;6.964;2022-11-02T08:02:02;23.57;;;13.83;;
39218;SDS011;24934;52.752;6.964;2022-11-02T08:04:28;19.67;;;13.17;;
39218;SDS011;24934;52.752;6.964;2022-11-02T08:06:54;16.17;;;12.80;;
39218;SDS011;24934;52.752;6.964;2022-11-02T08:09:22;21.17;;;13.27;;
39218;SDS011;24934;52.752;6.964;2022-11-02T08:11:48;17.13;;;13.10;;
39218;SDS011;24934;52.752;6.964;2022-11-02T08:14:13;14.80;;;12.37;;
39218;SDS011;24934;52.752;6.964;2022-11-02T08:16:39;23.93;;;14.00;;
39218;SDS011;24934;52.752;6.964;2022-11-02T08:19:05;20.83;;;13.33;;
39218;SDS011;24934;52.752;6.964;2022-11-02T08:21:30;19.20;;;12.60;;
39218;SDS011;24934;52.752;6.964;2022-11-02T08:23:56;16.90;;;13.43;;
39218;SDS011;24934;52.752;6.964;2022-11-02T08:26:22;15.40;;;12.40;;
39218;SDS011;24934;52.752;6.964;2022-11-02T08:28:47;20.27;;;11.93;;
39218;SDS011;24934;52.752;6.964;2022-11-02T08:31:13;18.73;;;13.37;;
39218;SDS011;24934;52.752;6.964;2022-11-02T08:33:43;24.33;;;13.17;;
39218;SDS011;24934;52.752;6.964;2022-11-02T08:36:09;16.63;;;12.33;;
39218;SDS011;24934;52.752;6.964;2022-11-02T08:38:36;16.20;;;12.93;;
39218;SDS011;24934;52.752;6.964;2022-11-02T08:41:03;20.77;;;12.40;;
39218;SDS011;24934;52.752;6.964;2022-11-02T08:43:32;17.40;;;12.43;;
39218;SDS011;24934;52.752;6.964;2022-11-02T08:45:58;15.87;;;12.33;;
39218;SDS011;24934;52.752;6.964;2022-11-02T08:48:24;21.30;;;12.40;;
39218;SDS011;24934;52.752;6.964;2022-11-02T08:50:51;18.67;;;12.50;;
39218;SDS011;24934;52.752;6.964;2022-11-02T08:53:16;16.97;;;11.23;;
39218;SDS011;24934;52.752;6.964;2022-11-02T08:55:42;16.57;;;10.90;;
39218;SDS011;24934;52.752;6.964;2022-11-02T08:58:08;14.23;;;11.00;;
39218;SDS011;24934;52.752;6.964;2022-11-02T09:00:34;17.40;;;9.97;;
39218;SDS011;24934;52.752;6.964;2022-11-02T09:03:04;19.03;;;10.23;;
39218;SDS011;24934;52.752;6.964;2022-11-02T09:05:33;19.23;;;10.37;;
39218;SDS011;24934;52.752;6.964;2022-11-02T09:08:01;12.60;;;10.40;;
39218;SDS011;24934;52.752;6.964;2022-11-02T09:10:33;13.87;;;10.40;;
39218;SDS011;24934;52.752;6.964;2022-11-02T09:13:00;16.03;;;10.10;;
39218;SDS011;24934;52.752;6.964;2022-11-02T09:15:27;15.70;;;10.33;;
39218;SDS011;24934;52.752;6.964;2022-11-02T09:17:53;18.13;;;10.10;;
39218;SDS011;24934;52.752;6.964;2022-11-02T09:20:21;14.40;;;10.60;;
39218;SDS011;24934;52.752;6.964;2022-11-02T09:22:47;17.27;;;11.87;;
39218;SDS011;24934;52.752;6.964;2022-11-02T09:25:13;17.37;;;10.40;;
39218;SDS011;24934;52.752;6.964;2022-11-02T09:27:40;13.43;;;10.63;;
39218;SDS011;24934;52.752;6.964;2022-11-02T09:30:07;18.92;;;10.88;;
39218;SDS011;24934;52.752;6.964;2022-11-02T09:32:33;15.05;;;10.52;;
39218;SDS011;24934;52.752;6.964;2022-11-02T09:35:00;14.05;;;10.35;;
39218;SDS011;24934;52.752;6.964;2022-11-02T09:37:27;12.98;;;9.75;;
39218;SDS011;24934;52.752;6.964;2022-11-02T09:39:53;11.93;;;9.83;;
39218;SDS011;24934;52.752;6.964;2022-11-02T09:42:21;15.07;;;10.52;;
39218;SDS011;24934;52.752;6.964;2022-11-02T09:45:02;13.75;;;11.07;;
39218;SDS011;24934;52.752;6.964;2022-11-02T09:47:30;13.90;;;10.10;;
39218;SDS011;24934;52.752;6.964;2022-11-02T09:50:20;14.93;;;10.45;;
39218;SDS011;24934;52.752;6.964;2022-11-02T09:52:52;15.70;;;10.40;;
39218;SDS011;24934;52.752;6.964;2022-11-02T09:55:25;16.15;;;9.93;;
39218;SDS011;24934;52.752;6.964;2022-11-02T09:57:56;13.32;;;9.93;;
39218;SDS011;24934;52.752;6.964;2022-11-02T10:00:26;14.35;;;10.63;;
39218;SDS011;24934;52.752;6.964;2022-11-02T10:03:00;20.02;;;11.65;;
39218;SDS011;24934;52.752;6.964;2022-11-02T10:05:55;12.90;;;10.80;;
39218;SDS011;24934;52.752;6.964;2022-11-02T10:08:37;14.38;;;9.38;;
39218;SDS011;24934;52.752;6.964;2022-11-02T10:14:11;13.07;;;11.10;;
39218;SDS011;24934;52.752;6.964;2022-11-02T10:16:51;13.18;;;10.05;;
39218;SDS011;24934;52.752;6.964;2022-11-02T10:19:27;17.02;;;10.73;;
39218;SDS011;24934;52.752;6.964;2022-11-02T10:21:55;14.50;;;9.95;;
39218;SDS011;24934;52.752;6.964;2022-11-02T10:24:29;17.88;;;11.35;;
39218;SDS011;24934;52.752;6.964;2022-11-02T10:26:59;14.38;;;10.90;;
39218;SDS011;24934;52.752;6.964;2022-11-02T10:31:59;14.18;;;9.60;;
39218;SDS011;24934;52.752;6.964;2022-11-02T10:34:26;14.88;;;9.80;;
39218;SDS011;24934;52.752;6.964;2022-11-02T10:39:58;13.00;;;9.40;;
39218;SDS011;24934;52.752;6.964;2022-11-02T10:45:50;10.80;;;8.77;;
39218;SDS011;24934;52.752;6.964;2022-11-02T10:48:31;14.50;;;9.45;;
39218;SDS011;24934;52.752;6.964;2022-11-02T10:53:38;11.95;;;9.05;;
39218;SDS011;24934;52.752;6.964;2022-11-02T10:59:23;16.92;;;10.30;;
39218;SDS011;24934;52.752;6.964;2022-11-02T11:01:38;14.90;;;9.68;;
39218;SDS011;24934;52.752;6.964;2022-11-02T11:04:27;13.93;;;9.90;;
39218;SDS011;24934;52.752;6.964;2022-11-02T11:06:55;11.27;;;9.80;;
39218;SDS011;24934;52.752;6.964;2022-11-02T11:09:22;15.73;;;9.93;;
39218;SDS011;24934;52.752;6.964;2022-11-02T11:14:45;10.13;;;8.30;;
39218;SDS011;24934;52.752;6.964;2022-11-02T11:17:17;10.25;;;8.48;;
39218;SDS011;24934;52.752;6.964;2022-11-02T11:19:52;12.90;;;8.80;;
39218;SDS011;24934;52.752;6.964;2022-11-02T11:22:27;10.07;;;8.43;;
39218;SDS011;24934;52.752;6.964;2022-11-02T11:28:00;12.57;;;9.10;;
39218;SDS011;24934;52.752;6.964;2022-11-02T11:30:44;11.05;;;8.60;;
39218;SDS011;24934;52.752;6.964;2022-11-02T11:33:25;18.83;;;9.18;;
39218;SDS011;24934;52.752;6.964;2022-11-02T11:35:51;14.98;;;8.27;;
39218;SDS011;24934;52.752;6.964;2022-11-02T11:38:18;11.55;;;7.90;;
39218;SDS011;24934;52.752;6.964;2022-11-02T11:40:49;11.55;;;8.52;;
39218;SDS011;24934;52.752;6.964;2022-11-02T11:43:18;11.73;;;8.80;;
39218;SDS011;24934;52.752;6.964;2022-11-02T11:46:06;13.80;;;9.23;;
39218;SDS011;24934;52.752;6.964;2022-11-02T11:51:01;17.38;;;10.18;;
39218;SDS011;24934;52.752;6.964;2022-11-02T11:53:28;13.95;;;9.70;;
39218;SDS011;24934;52.752;6.964;2022-11-02T11:55:55;9.75;;;8.75;;
39218;SDS011;24934;52.752;6.964;2022-11-02T11:58:24;15.52;;;9.38;;
39218;SDS011;24934;52.752;6.964;2022-11-02T12:03:30;11.40;;;9.45;;
39218;SDS011;24934;52.752;6.964;2022-11-02T12:06:11;15.15;;;9.80;;
39218;SDS011;24934;52.752;6.964;2022-11-02T12:11:39;12.20;;;9.30;;
39218;SDS011;24934;52.752;6.964;2022-11-02T12:22:57;19.45;;;8.98;;
39218;SDS011;24934;52.752;6.964;2022-11-02T12:25:32;11.05;;;8.32;;
39218;SDS011;24934;52.752;6.964;2022-11-02T12:30:54;14.27;;;8.02;;
39218;SDS011;24934;52.752;6.964;2022-11-02T12:33:47;14.35;;;7.95;;
39218;SDS011;24934;52.752;6.964;2022-11-02T12:45:45;11.07;;;8.60;;
39218;SDS011;24934;52.752;6.964;2022-11-02T12:48:24;14.00;;;8.05;;
39218;SDS011;24934;52.752;6.964;2022-11-02T12:51:10;12.57;;;8.93;;
39218;SDS011;24934;52.752;6.964;2022-11-02T12:56:17;11.85;;;8.30;;
39218;SDS011;24934;52.752;6.964;2022-11-02T12:58:48;14.23;;;9.10;;
39218;SDS011;24934;52.752;6.964;2022-11-02T13:04:17;12.32;;;8.18;;
39218;SDS011;24934;52.752;6.964;2022-11-02T13:06:59;16.98;;;9.07;;
39218;SDS011;24934;52.752;6.964;2022-11-02T13:09:30;12.65;;;9.05;;
39218;SDS011;24934;52.752;6.964;2022-11-02T13:12:04;10.48;;;8.57;;
39218;SDS011;24934;52.752;6.964;2022-11-02T13:14:40;10.80;;;8.98;;
39218;SDS011;24934;52.752;6.964;2022-11-02T13:20:14;14.25;;;9.02;;
39218;SDS011;24934;52.752;6.964;2022-11-02T13:22:46;13.10;;;8.15;;
39218;SDS011;24934;52.752;6.964;2022-11-02T13:25:30;10.20;;;8.75;;
39218;SDS011;24934;52.752;6.964;2022-11-02T13:28:15;10.98;;;8.70;;
39218;SDS011;24934;52.752;6.964;2022-11-02T13:30:54;12.57;;;7.80;;
39218;SDS011;24934;52.752;6.964;2022-11-02T13:33:20;11.32;;;7.30;;
39218;SDS011;24934;52.752;6.964;2022-11-02T13:35:54;11.82;;;7.28;;
39218;SDS011;24934;52.752;6.964;2022-11-02T13:49:23;12.13;;;6.97;;
39218;SDS011;24934;52.752;6.964;2022-11-02T13:52:08;13.43;;;7.00;;
39218;SDS011;24934;52.752;6.964;2022-11-02T13:54:48;10.52;;;6.65;;
39218;SDS011;24934;52.752;6.964;2022-11-02T13:57:28;19.00;;;7.35;;
39218;SDS011;24934;52.752;6.964;2022-11-02T13:59:59;13.80;;;8.13;;
39218;SDS011;24934;52.752;6.964;2022-11-02T14:02:29;12.43;;;7.55;;
39218;SDS011;24934;52.752;6.964;2022-11-02T14:04:58;14.23;;;7.28;;
39218;SDS011;24934;52.752;6.964;2022-11-02T14:10:13;12.02;;;6.88;;
39218;SDS011;24934;52.752;6.964;2022-11-02T14:12:44;15.50;;;7.75;;
39218;SDS011;24934;52.752;6.964;2022-11-02T14:20:37;16.00;;;7.65;;
39218;SDS011;24934;52.752;6.964;2022-11-02T14:25:45;16.40;;;7.85;;
39218;SDS011;24934;52.752;6.964;2022-11-02T14:30:59;10.57;;;8.02;;
39218;SDS011;24934;52.752;6.964;2022-11-02T14:40:32;18.90;;;8.25;;
39218;SDS011;24934;52.752;6.964;2022-11-02T14:42:58;14.65;;;7.88;;
39218;SDS011;24934;52.752;6.964;2022-11-02T14:48:51;15.60;;;8.25;;
39218;SDS011;24934;52.752;6.964;2022-11-02T14:51:30;18.33;;;8.80;;
39218;SDS011;24934;52.752;6.964;2022-11-02T14:53:58;14.18;;;8.13;;
39218;SDS011;24934;52.752;6.964;2022-11-02T14:59:16;12.38;;;8.05;;
39218;SDS011;24934;52.752;6.964;2022-11-02T15:01:50;14.60;;;8.52;;
39218;SDS011;24934;52.752;6.964;2022-11-02T15:04:22;17.05;;;8.02;;
39218;SDS011;24934;52.752;6.964;2022-11-02T15:06:50;13.05;;;7.57;;
39218;SDS011;24934;52.752;6.964;2022-11-02T15:12:37;14.07;;;7.40;;
39218;SDS011;24934;52.752;6.964;2022-11-02T15:17:49;10.15;;;8.18;;
39218;SDS011;24934;52.752;6.964;2022-11-02T15:20:24;11.23;;;7.72;;
39218;SDS011;24934;52.752;6.964;2022-11-02T15:25:38;12.23;;;8.05;;
39218;SDS011;24934;52.752;6.964;2022-11-02T15:28:14;13.77;;;7.50;;
39218;SDS011;24934;52.752;6.964;2022-11-02T15:30:44;14.43;;;8.07;;
39218;SDS011;24934;52.752;6.964;2022-11-02T15:33:15;18.08;;;7.60;;
39218;SDS011;24934;52.752;6.964;2022-11-02T15:35:46;14.20;;;7.70;;
39218;SDS011;24934;52.752;6.964;2022-11-02T15:38:17;15.18;;;7.82;;
39218;SDS011;24934;52.752;6.964;2022-11-02T15:46:28;17.02;;;8.48;;
39218;SDS011;24934;52.752;6.964;2022-11-02T15:49:10;16.17;;;8.82;;
39218;SDS011;24934;52.752;6.964;2022-11-02T16:02:26;15.13;;;8.05;;
39218;SDS011;24934;52.752;6.964;2022-11-02T16:04:56;12.50;;;8.10;;
39218;SDS011;24934;52.752;6.964;2022-11-02T16:07:24;12.67;;;8.10;;
39218;SDS011;24934;52.752;6.964;2022-11-02T16:09:50;12.20;;;8.07;;
39218;SDS011;24934;52.752;6.964;2022-11-02T16:12:17;16.97;;;7.80;;
39218;SDS011;24934;52.752;6.964;2022-11-02T16:14:50;15.67;;;7.80;;
39218;SDS011;24934;52.752;6.964;2022-11-02T16:17:25;14.93;;;7.90;;
39218;SDS011;24934;52.752;6.964;2022-11-02T16:20:29;17.10;;;7.50;;
39218;SDS011;24934;52.752;6.964;2022-11-02T16:23:02;13.87;;;7.50;;
39218;SDS011;24934;52.752;6.964;2022-11-02T16:28:08;16.87;;;6.83;;
39218;SDS011;24934;52.752;6.964;2022-11-02T16:30:35;21.60;;;6.70;;
39218;SDS011;24934;52.752;6.964;2022-11-02T16:33:01;14.90;;;6.83;;
39218;SDS011;24934;52.752;6.964;2022-11-02T16:35:27;13.70;;;6.80;;
39218;SDS011;24934;52.752;6.964;2022-11-02T16:37:53;12.60;;;6.30;;
39218;SDS011;24934;52.752;6.964;2022-11-02T16:40:19;17.57;;;7.10;;
39218;SDS011;24934;52.752;6.964;2022-11-02T16:42:46;18.27;;;7.67;;
39218;SDS011;24934;52.752;6.964;2022-11-02T16:45:27;17.33;;;7.53;;
39218;SDS011;24934;52.752;6.964;2022-11-02T16:48:02;12.43;;;6.87;;
39218;SDS011;24934;52.752;6.964;2022-11-02T16:50:58;15.97;;;7.27;;
39218;SDS011;24934;52.752;6.964;2022-11-02T16:53:26;22.87;;;7.77;;
39218;SDS011;24934;52.752;6.964;2022-11-02T16:55:54;13.77;;;7.47;;
39218;SDS011;24934;52.752;6.964;2022-11-02T16:58:37;19.57;;;7.83;;
39218;SDS011;24934;52.752;6.964;2022-11-02T17:01:02;16.27;;;7.90;;
39218;SDS011;24934;52.752;6.964;2022-11-02T17:03:29;23.97;;;11.80;;
39218;SDS011;24934;52.752;6.964;2022-11-02T17:05:57;29.70;;;17.50;;
39218;SDS011;24934;52.752;6.964;2022-11-02T17:08:29;53.70;;;26.90;;
39218;SDS011;24934;52.752;6.964;2022-11-02T17:10:58;45.90;;;27.23;;
39218;SDS011;24934;52.752;6.964;2022-11-02T17:13:28;50.13;;;24.93;;
39218;SDS011;24934;52.752;6.964;2022-11-02T17:15:57;43.30;;;21.77;;
39218;SDS011;24934;52.752;6.964;2022-11-02T17:18:28;37.83;;;18.97;;
39218;SDS011;24934;52.752;6.964;2022-11-02T17:23:53;28.20;;;14.70;;
39218;SDS011;24934;52.752;6.964;2022-11-02T17:26:30;24.77;;;13.80;;
39218;SDS011;24934;52.752;6.964;2022-11-02T17:29:43;22.17;;;12.17;;
39218;SDS011;24934;52.752;6.964;2022-11-02T17:31:43;28.43;;;11.17;;
39218;SDS011;24934;52.752;6.964;2022-11-02T17:34:10;22.97;;;12.17;;
39218;SDS011;24934;52.752;6.964;2022-11-02T17:36:42;33.40;;;11.57;;